sensor_id;sensor_type;location;lat;lon;timestamp;pressure;altitude;pressure_sealevel;temperature;humidity
41078;BME280;26823;42.662;23.352;2023-12-20T00:01:28;155971.13;;;-0.56;99.97
41078;BME280;26823;42.662;23.352;2023-12-20T00:03:53;155985.84;;;-0.51;99.91
41078;BME280;26823;42.662;23.352;2023-12-20T00:06:19;155972.50;;;-0.56;99.63
41078;BME280;26823;42.662;23.352;2023-12-20T00:08:44;155953.78;;;-0.63;99.78
41078;BME280;26823;42.662;23.352;2023-12-20T00:11:10;155961.78;;;-0.60;100.00
41078;BME280;26823;42.662;23.352;2023-12-20T00:13:35;155949.78;;;-0.64;100.00
41078;BME280;26823;42.662;23.352;2023-12-20T00:16:00;155975.13;;;-0.55;100.00
41078;BME280;26823;42.662;23.352;2023-12-20T00:18:26;155981.81;;;-0.52;99.68
41078;BME280;26823;42.662;23.352;2023-12-20T00:20:51;155964.44;;;-0.59;99.30
41078;BME280;26823;42.662;23.352;2023-12-20T00:23:17;155956.44;;;-0.62;99.30
41078;BME280;26823;42.662;23.352;2023-12-20T00:25:42;155969.81;;;-0.57;99.33
41078;BME280;26823;42.662;23.352;2023-12-20T00:28:08;155963.13;;;-0.59;99.38
41078;BME280;26823;42.662;23.352;2023-12-20T00:30:33;155964.44;;;-0.59;99.68
41078;BME280;26823;42.662;23.352;2023-12-20T00:32:58;155955.09;;;-0.62;99.62
41078;BME280;26823;42.662;23.352;2023-12-20T00:35:24;155939.03;;;-0.69;99.78
41078;BME280;26823;42.662;23.352;2023-12-20T00:37:49;155927.06;;;-0.73;99.47
41078;BME280;26823;42.662;23.352;2023-12-20T00:40:15;155949.78;;;-0.64;99.48
41078;BME280;26823;42.662;23.352;2023-12-20T00:42:40;155933.72;;;-0.71;99.35
41078;BME280;26823;42.662;23.352;2023-12-20T00:45:06;155945.72;;;-0.66;99.66
41078;BME280;26823;42.662;23.352;2023-12-20T00:47:32;155939.03;;;-0.69;99.56
41078;BME280;26823;42.662;23.352;2023-12-20T00:49:57;155909.66;;;-0.80;99.62
41078;BME280;26823;42.662;23.352;2023-12-20T00:52:23;155921.69;;;-0.75;99.90
41078;BME280;26823;42.662;23.352;2023-12-20T00:54:49;155940.41;;;-0.68;99.62
41078;BME280;26823;42.662;23.352;2023-12-20T00:57:14;155928.38;;;-0.73;99.35
41078;BME280;26823;42.662;23.352;2023-12-20T00:59:40;155908.31;;;-0.80;99.30
41078;BME280;26823;42.662;23.352;2023-12-20T01:02:06;155909.66;;;-0.80;99.63
41078;BME280;26823;42.662;23.352;2023-12-20T01:04:31;155902.97;;;-0.83;99.94
41078;BME280;26823;42.662;23.352;2023-12-20T01:06:57;155915.00;;;-0.78;99.84
41078;BME280;26823;42.662;23.352;2023-12-20T01:09:22;155909.66;;;-0.80;99.78
41078;BME280;26823;42.662;23.352;2023-12-20T01:11:54;155888.28;;;-0.88;100.00
41078;BME280;26823;42.662;23.352;2023-12-20T01:14:19;155869.56;;;-0.95;100.00
41078;BME280;26823;42.662;23.352;2023-12-20T01:16:45;155894.97;;;-0.86;100.00
41078;BME280;26823;42.662;23.352;2023-12-20T01:19:10;155862.91;;;-0.98;100.00
41078;BME280;26823;42.662;23.352;2023-12-20T01:21:36;155793.44;;;-1.25;100.00
41078;BME280;26823;42.662;23.352;2023-12-20T01:24:01;155873.56;;;-0.94;100.00
41078;BME280;26823;42.662;23.352;2023-12-20T01:26:27;155890.97;;;-0.87;100.00
41078;BME280;26823;42.662;23.352;2023-12-20T01:28:52;155900.34;;;-0.84;100.00
41078;BME280;26823;42.662;23.352;2023-12-20T01:31:18;155861.56;;;-0.99;99.81
41078;BME280;26823;42.662;23.352;2023-12-20T01:33:44;155908.31;;;-0.80;99.75
41078;BME280;26823;42.662;23.352;2023-12-20T01:36:09;155900.34;;;-0.84;99.29
41078;BME280;26823;42.662;23.352;2023-12-20T01:38:35;155894.97;;;-0.86;99.20
41078;BME280;26823;42.662;23.352;2023-12-20T01:41:00;155882.94;;;-0.90;99.00
41078;BME280;26823;42.662;23.352;2023-12-20T01:43:26;155872.25;;;-0.94;99.09
41078;BME280;26823;42.662;23.352;2023-12-20T01:45:51;155877.63;;;-0.92;99.19
41078;BME280;26823;42.662;23.352;2023-12-20T01:48:18;155858.91;;;-1.00;99.32
41078;BME280;26823;42.662;23.352;2023-12-20T01:50:45;155865.56;;;-0.97;99.70
41078;BME280;26823;42.662;23.352;2023-12-20T01:53:12;155844.19;;;-1.05;100.00
41078;BME280;26823;42.662;23.352;2023-12-20T01:55:39;155828.19;;;-1.11;99.94
41078;BME280;26823;42.662;23.352;2023-12-20T01:58:06;155832.19;;;-1.10;100.00
41078;BME280;26823;42.662;23.352;2023-12-20T02:00:32;155872.25;;;-0.94;99.52
41078;BME280;26823;42.662;23.352;2023-12-20T02:03:01;155861.56;;;-0.99;99.26
41078;BME280;26823;42.662;23.352;2023-12-20T02:05:28;155842.84;;;-1.06;99.01
41078;BME280;26823;42.662;23.352;2023-12-20T02:07:54;155840.19;;;-1.07;99.28
41078;BME280;26823;42.662;23.352;2023-12-20T02:10:20;155840.19;;;-1.07;99.71
41078;BME280;26823;42.662;23.352;2023-12-20T02:12:45;155854.91;;;-1.01;99.41
41078;BME280;26823;42.662;23.352;2023-12-20T02:15:11;155848.22;;;-1.04;99.35
41078;BME280;26823;42.662;23.352;2023-12-20T02:17:38;155841.53;;;-1.06;99.23
41078;BME280;26823;42.662;23.352;2023-12-20T02:20:04;155822.81;;;-1.13;99.57
41078;BME280;26823;42.662;23.352;2023-12-20T02:22:31;155842.84;;;-1.06;99.42
41078;BME280;26823;42.662;23.352;2023-12-20T02:24:56;155844.19;;;-1.05;99.59
41078;BME280;26823;42.662;23.352;2023-12-20T02:27:23;155841.53;;;-1.06;99.29
41078;BME280;26823;42.662;23.352;2023-12-20T02:29:50;155840.19;;;-1.07;99.04
41078;BME280;26823;42.662;23.352;2023-12-20T02:32:17;155834.88;;;-1.09;98.99
41078;BME280;26823;42.662;23.352;2023-12-20T02:34:43;155834.88;;;-1.09;98.74
41078;BME280;26823;42.662;23.352;2023-12-20T02:37:08;155828.19;;;-1.11;98.55
41078;BME280;26823;42.662;23.352;2023-12-20T02:39:34;155822.81;;;-1.13;97.87
41078;BME280;26823;42.662;23.352;2023-12-20T02:41:59;155822.81;;;-1.13;97.43
41078;BME280;26823;42.662;23.352;2023-12-20T02:44:24;155816.16;;;-1.16;96.88
41078;BME280;26823;42.662;23.352;2023-12-20T02:46:50;155804.09;;;-1.21;96.76
41078;BME280;26823;42.662;23.352;2023-12-20T02:49:15;155800.13;;;-1.22;96.84
41078;BME280;26823;42.662;23.352;2023-12-20T02:51:41;155788.06;;;-1.27;96.22
41078;BME280;26823;42.662;23.352;2023-12-20T02:54:06;155785.44;;;-1.28;96.18
41078;BME280;26823;42.662;23.352;2023-12-20T02:56:33;155766.72;;;-1.35;96.17
41078;BME280;26823;42.662;23.352;2023-12-20T02:58:58;155740.03;;;-1.45;96.24
41078;BME280;26823;42.662;23.352;2023-12-20T03:01:24;155742.66;;;-1.44;96.48
41078;BME280;26823;42.662;23.352;2023-12-20T03:03:49;155733.34;;;-1.48;96.28
41078;BME280;26823;42.662;23.352;2023-12-20T03:06:18;155725.31;;;-1.51;96.26
41078;BME280;26823;42.662;23.352;2023-12-20T03:08:44;155731.97;;;-1.49;96.79
41078;BME280;26823;42.662;23.352;2023-12-20T03:11:10;155709.28;;;-1.57;96.81
41078;BME280;26823;42.662;23.352;2023-12-20T03:13:35;155722.63;;;-1.52;97.08
41078;BME280;26823;42.662;23.352;2023-12-20T03:16:01;155721.31;;;-1.53;96.76
41078;BME280;26823;42.662;23.352;2023-12-20T03:18:26;155711.97;;;-1.56;97.30
41078;BME280;26823;42.662;23.352;2023-12-20T03:20:53;155714.63;;;-1.55;97.30
41078;BME280;26823;42.662;23.352;2023-12-20T03:23:19;155721.31;;;-1.53;97.24
41078;BME280;26823;42.662;23.352;2023-12-20T03:25:44;155722.63;;;-1.52;97.23
41078;BME280;26823;42.662;23.352;2023-12-20T03:28:09;155694.63;;;-1.63;97.21
41078;BME280;26823;42.662;23.352;2023-12-20T03:30:35;155693.25;;;-1.64;96.78
41078;BME280;26823;42.662;23.352;2023-12-20T03:33:00;155686.56;;;-1.66;96.82
41078;BME280;26823;42.662;23.352;2023-12-20T03:35:26;155674.59;;;-1.71;96.86
41078;BME280;26823;42.662;23.352;2023-12-20T03:37:51;155686.56;;;-1.66;97.00
41078;BME280;26823;42.662;23.352;2023-12-20T03:40:17;155683.94;;;-1.67;97.21
41078;BME280;26823;42.662;23.352;2023-12-20T03:42:42;155671.91;;;-1.72;97.10
41078;BME280;26823;42.662;23.352;2023-12-20T03:45:08;155665.22;;;-1.74;97.60
41078;BME280;26823;42.662;23.352;2023-12-20T03:47:34;155663.88;;;-1.75;97.57
41078;BME280;26823;42.662;23.352;2023-12-20T03:49:59;155641.22;;;-1.84;97.79
41078;BME280;26823;42.662;23.352;2023-12-20T03:52:25;155641.22;;;-1.84;97.75
41078;BME280;26823;42.662;23.352;2023-12-20T03:54:50;155655.88;;;-1.78;97.89
41078;BME280;26823;42.662;23.352;2023-12-20T03:57:15;155633.19;;;-1.87;98.19
41078;BME280;26823;42.662;23.352;2023-12-20T03:59:41;155643.84;;;-1.83;98.43
41078;BME280;26823;42.662;23.352;2023-12-20T04:02:06;155637.19;;;-1.85;98.28
41078;BME280;26823;42.662;23.352;2023-12-20T04:04:31;155649.22;;;-1.81;98.39
41078;BME280;26823;42.662;23.352;2023-12-20T04:06:57;155651.88;;;-1.79;98.37
41078;BME280;26823;42.662;23.352;2023-12-20T04:09:22;155654.56;;;-1.78;98.10
41078;BME280;26823;42.662;23.352;2023-12-20T04:11:48;155645.22;;;-1.82;98.25
41078;BME280;26823;42.662;23.352;2023-12-20T04:14:13;155659.88;;;-1.76;98.32
41078;BME280;26823;42.662;23.352;2023-12-20T04:16:39;155643.84;;;-1.83;98.18
41078;BME280;26823;42.662;23.352;2023-12-20T04:19:05;155634.50;;;-1.86;98.24
41078;BME280;26823;42.662;23.352;2023-12-20T04:21:30;155649.22;;;-1.81;98.00
41078;BME280;26823;42.662;23.352;2023-12-20T04:23:56;155607.81;;;-1.97;97.57
41078;BME280;26823;42.662;23.352;2023-12-20T04:26:21;155673.22;;;-1.71;97.43
41078;BME280;26823;42.662;23.352;2023-12-20T04:28:47;155655.88;;;-1.78;97.13
41078;BME280;26823;42.662;23.352;2023-12-20T04:31:12;155657.19;;;-1.77;97.58
41078;BME280;26823;42.662;23.352;2023-12-20T04:33:37;155653.19;;;-1.79;97.85
41078;BME280;26823;42.662;23.352;2023-12-20T04:36:03;155653.19;;;-1.79;97.70
41078;BME280;26823;42.662;23.352;2023-12-20T04:38:29;155651.88;;;-1.79;97.54
41078;BME280;26823;42.662;23.352;2023-12-20T04:40:55;155650.53;;;-1.80;97.62
41078;BME280;26823;42.662;23.352;2023-12-20T04:43:21;155643.84;;;-1.83;97.79
41078;BME280;26823;42.662;23.352;2023-12-20T04:45:46;155647.91;;;-1.81;97.35
41078;BME280;26823;42.662;23.352;2023-12-20T04:48:12;155638.53;;;-1.85;96.97
41078;BME280;26823;42.662;23.352;2023-12-20T04:50:37;155614.47;;;-1.94;96.56
41078;BME280;26823;42.662;23.352;2023-12-20T04:53:03;155623.81;;;-1.90;96.46
41078;BME280;26823;42.662;23.352;2023-12-20T04:55:28;155611.84;;;-1.95;96.21
41078;BME280;26823;42.662;23.352;2023-12-20T04:57:54;155594.47;;;-2.02;95.77
41078;BME280;26823;42.662;23.352;2023-12-20T05:00:20;155579.78;;;-2.07;95.85
41078;BME280;26823;42.662;23.352;2023-12-20T05:02:45;155539.75;;;-2.23;95.81
41078;BME280;26823;42.662;23.352;2023-12-20T05:05:11;155501.06;;;-2.38;96.29
41078;BME280;26823;42.662;23.352;2023-12-20T05:07:36;155471.69;;;-2.49;96.47
41078;BME280;26823;42.662;23.352;2023-12-20T05:10:02;155445.00;;;-2.59;97.25
41078;BME280;26823;42.662;23.352;2023-12-20T05:12:30;155386.31;;;-2.82;97.61
41078;BME280;26823;42.662;23.352;2023-12-20T05:14:55;155300.94;;;-3.15;98.83
41078;BME280;26823;42.662;23.352;2023-12-20T05:17:20;155268.91;;;-3.28;99.63
41078;BME280;26823;42.662;23.352;2023-12-20T05:19:46;155247.56;;;-3.36;100.00
41078;BME280;26823;42.662;23.352;2023-12-20T05:22:11;155244.94;;;-3.37;100.00
41078;BME280;26823;42.662;23.352;2023-12-20T05:24:37;155267.59;;;-3.28;100.00
41078;BME280;26823;42.662;23.352;2023-12-20T05:27:02;155270.22;;;-3.27;100.00
41078;BME280;26823;42.662;23.352;2023-12-20T05:29:28;155271.59;;;-3.26;100.00
41078;BME280;26823;42.662;23.352;2023-12-20T05:31:53;155266.25;;;-3.29;100.00
41078;BME280;26823;42.662;23.352;2023-12-20T05:34:19;155268.91;;;-3.28;100.00
41078;BME280;26823;42.662;23.352;2023-12-20T05:36:45;155276.91;;;-3.24;100.00
41078;BME280;26823;42.662;23.352;2023-12-20T05:39:10;155283.56;;;-3.22;100.00
41078;BME280;26823;42.662;23.352;2023-12-20T05:41:36;155290.22;;;-3.19;100.00
41078;BME280;26823;42.662;23.352;2023-12-20T05:44:01;155296.91;;;-3.17;100.00
41078;BME280;26823;42.662;23.352;2023-12-20T05:46:27;155307.59;;;-3.13;100.00
41078;BME280;26823;42.662;23.352;2023-12-20T05:48:52;155320.94;;;-3.07;100.00
41078;BME280;26823;42.662;23.352;2023-12-20T05:51:18;155335.59;;;-3.02;100.00
41078;BME280;26823;42.662;23.352;2023-12-20T05:53:44;155344.94;;;-2.98;100.00
41078;BME280;26823;42.662;23.352;2023-12-20T05:56:09;155339.56;;;-3.00;100.00
41078;BME280;26823;42.662;23.352;2023-12-20T05:58:35;155350.28;;;-2.96;100.00
41078;BME280;26823;42.662;23.352;2023-12-20T06:01:03;155360.94;;;-2.92;100.00
41078;BME280;26823;42.662;23.352;2023-12-20T06:03:29;155364.94;;;-2.90;100.00
41078;BME280;26823;42.662;23.352;2023-12-20T06:05:54;155395.66;;;-2.79;100.00
41078;BME280;26823;42.662;23.352;2023-12-20T06:08:20;155400.97;;;-2.76;100.00
41078;BME280;26823;42.662;23.352;2023-12-20T06:10:45;155412.97;;;-2.72;100.00
41078;BME280;26823;42.662;23.352;2023-12-20T06:13:10;155430.31;;;-2.65;100.00
41078;BME280;26823;42.662;23.352;2023-12-20T06:15:38;155443.66;;;-2.60;100.00
41078;BME280;26823;42.662;23.352;2023-12-20T06:18:03;155453.00;;;-2.56;100.00
41078;BME280;26823;42.662;23.352;2023-12-20T06:20:29;155459.66;;;-2.54;100.00
41078;BME280;26823;42.662;23.352;2023-12-20T06:22:54;155470.31;;;-2.50;100.00
41078;BME280;26823;42.662;23.352;2023-12-20T06:25:19;155477.00;;;-2.47;100.00
41078;BME280;26823;42.662;23.352;2023-12-20T06:27:45;155483.66;;;-2.44;100.00
41078;BME280;26823;42.662;23.352;2023-12-20T06:30:10;155487.72;;;-2.43;100.00
41078;BME280;26823;42.662;23.352;2023-12-20T06:32:36;155501.06;;;-2.38;100.00
41078;BME280;26823;42.662;23.352;2023-12-20T06:35:03;155523.75;;;-2.29;100.00
41078;BME280;26823;42.662;23.352;2023-12-20T06:37:30;155530.41;;;-2.26;100.00
41078;BME280;26823;42.662;23.352;2023-12-20T06:39:55;155546.44;;;-2.20;100.00
41078;BME280;26823;42.662;23.352;2023-12-20T06:42:22;155567.75;;;-2.12;100.00
41078;BME280;26823;42.662;23.352;2023-12-20T06:44:47;155577.13;;;-2.08;100.00
41078;BME280;26823;42.662;23.352;2023-12-20T06:47:13;155570.44;;;-2.11;100.00
41078;BME280;26823;42.662;23.352;2023-12-20T06:49:39;155583.78;;;-2.06;100.00
41078;BME280;26823;42.662;23.352;2023-12-20T06:52:05;155525.06;;;-2.28;100.00
41078;BME280;26823;42.662;23.352;2023-12-20T06:54:30;155605.19;;;-1.98;100.00
41078;BME280;26823;42.662;23.352;2023-12-20T06:56:56;155598.44;;;-2.00;100.00
41078;BME280;26823;42.662;23.352;2023-12-20T06:59:21;155666.53;;;-1.74;100.00
41078;BME280;26823;42.662;23.352;2023-12-20T07:01:50;155678.59;;;-1.69;100.00
41078;BME280;26823;42.662;23.352;2023-12-20T07:04:16;155725.31;;;-1.51;99.93
41078;BME280;26823;42.662;23.352;2023-12-20T07:06:45;155762.72;;;-1.37;99.81
41078;BME280;26823;42.662;23.352;2023-12-20T07:09:10;155800.13;;;-1.22;98.98
41078;BME280;26823;42.662;23.352;2023-12-20T07:11:36;155832.19;;;-1.10;98.42
41078;BME280;26823;42.662;23.352;2023-12-20T07:14:01;155810.78;;;-1.18;97.38
41078;BME280;26823;42.662;23.352;2023-12-20T07:16:27;155860.22;;;-0.99;97.11
41078;BME280;26823;42.662;23.352;2023-12-20T07:18:52;155868.25;;;-0.96;96.65
41078;BME280;26823;42.662;23.352;2023-12-20T07:21:17;155896.28;;;-0.85;96.63
41078;BME280;26823;42.662;23.352;2023-12-20T07:23:43;155913.69;;;-0.78;96.10
41078;BME280;26823;42.662;23.352;2023-12-20T07:26:09;155902.97;;;-0.83;95.41
41078;BME280;26823;42.662;23.352;2023-12-20T07:28:34;155921.69;;;-0.75;95.14
41078;BME280;26823;42.662;23.352;2023-12-20T07:30:59;155951.09;;;-0.64;95.13
41078;BME280;26823;42.662;23.352;2023-12-20T07:33:25;155964.44;;;-0.59;94.44
41078;BME280;26823;42.662;23.352;2023-12-20T07:35:50;155904.34;;;-0.82;93.83
41078;BME280;26823;42.662;23.352;2023-12-20T07:38:17;155969.81;;;-0.57;93.73
41078;BME280;26823;42.662;23.352;2023-12-20T07:40:42;155977.81;;;-0.54;93.66
41078;BME280;26823;42.662;23.352;2023-12-20T07:43:07;155972.50;;;-0.56;93.84
41078;BME280;26823;42.662;23.352;2023-12-20T07:45:33;155991.16;;;-0.48;94.08
41078;BME280;26823;42.662;23.352;2023-12-20T07:47:59;156011.22;;;-0.41;93.90
41078;BME280;26823;42.662;23.352;2023-12-20T07:50:24;156013.91;;;-0.40;93.60
41078;BME280;26823;42.662;23.352;2023-12-20T07:52:50;156007.22;;;-0.42;93.52
41078;BME280;26823;42.662;23.352;2023-12-20T07:55:15;156013.91;;;-0.40;93.43
41078;BME280;26823;42.662;23.352;2023-12-20T07:57:40;156062.03;;;-0.21;93.43
41078;BME280;26823;42.662;23.352;2023-12-20T08:00:06;156090.09;;;-0.10;93.54
41078;BME280;26823;42.662;23.352;2023-12-20T08:02:32;156119.50;;;0.01;93.02
41078;BME280;26823;42.662;23.352;2023-12-20T08:04:57;156104.81;;;-0.05;92.93
41078;BME280;26823;42.662;23.352;2023-12-20T08:07:23;156112.81;;;-0.02;92.54
41078;BME280;26823;42.662;23.352;2023-12-20T08:09:49;156123.56;;;0.03;92.81
41078;BME280;26823;42.662;23.352;2023-12-20T08:12:14;156147.59;;;0.12;92.75
41078;BME280;26823;42.662;23.352;2023-12-20T08:14:42;156246.56;;;0.50;92.61
41078;BME280;26823;42.662;23.352;2023-12-20T08:17:07;156306.75;;;0.73;91.57
41078;BME280;26823;42.662;23.352;2023-12-20T08:19:32;156338.88;;;0.86;90.07
41078;BME280;26823;42.662;23.352;2023-12-20T08:21:58;156364.28;;;0.95;89.74
41078;BME280;26823;42.662;23.352;2023-12-20T08:24:23;156391.06;;;1.06;89.22
41078;BME280;26823;42.662;23.352;2023-12-20T08:26:48;156421.81;;;1.18;88.83
41078;BME280;26823;42.662;23.352;2023-12-20T08:29:14;156466.00;;;1.35;87.87
41078;BME280;26823;42.662;23.352;2023-12-20T08:31:39;156511.53;;;1.52;87.32
41078;BME280;26823;42.662;23.352;2023-12-20T08:34:05;156496.78;;;1.46;86.25
41078;BME280;26823;42.662;23.352;2023-12-20T08:36:30;156506.16;;;1.50;86.38
41078;BME280;26823;42.662;23.352;2023-12-20T08:38:56;156500.78;;;1.48;86.49
41078;BME280;26823;42.662;23.352;2023-12-20T08:41:21;156474.00;;;1.38;86.85
41078;BME280;26823;42.662;23.352;2023-12-20T08:43:47;156392.38;;;1.06;87.64
41078;BME280;26823;42.662;23.352;2023-12-20T08:46:13;156364.28;;;0.95;88.19
41078;BME280;26823;42.662;23.352;2023-12-20T08:48:39;156328.16;;;0.81;88.95
41078;BME280;26823;42.662;23.352;2023-12-20T08:51:05;156318.81;;;0.78;89.99
41078;BME280;26823;42.662;23.352;2023-12-20T08:53:32;156294.72;;;0.69;90.67
41078;BME280;26823;42.662;23.352;2023-12-20T08:55:58;156309.44;;;0.74;91.28
41078;BME280;26823;42.662;23.352;2023-12-20T08:58:26;156316.13;;;0.77;90.93
41078;BME280;26823;42.662;23.352;2023-12-20T09:00:52;156305.44;;;0.73;90.78
41078;BME280;26823;42.662;23.352;2023-12-20T09:03:17;156282.69;;;0.64;91.67
41078;BME280;26823;42.662;23.352;2023-12-20T09:05:43;156312.09;;;0.75;92.32
41078;BME280;26823;42.662;23.352;2023-12-20T09:08:08;156288.06;;;0.66;91.76
41078;BME280;26823;42.662;23.352;2023-12-20T09:10:35;156239.88;;;0.47;92.50
41078;BME280;26823;42.662;23.352;2023-12-20T09:13:01;156265.31;;;0.57;92.86
41078;BME280;26823;42.662;23.352;2023-12-20T09:15:27;156201.09;;;0.32;93.80
41078;BME280;26823;42.662;23.352;2023-12-20T09:17:54;156203.75;;;0.34;94.59
41078;BME280;26823;42.662;23.352;2023-12-20T09:20:19;156227.81;;;0.43;95.01
41078;BME280;26823;42.662;23.352;2023-12-20T09:22:45;156215.81;;;0.38;95.14
41078;BME280;26823;42.662;23.352;2023-12-20T09:25:11;156213.13;;;0.37;95.33
41078;BME280;26823;42.662;23.352;2023-12-20T09:27:38;156225.13;;;0.42;95.74
41078;BME280;26823;42.662;23.352;2023-12-20T09:30:04;156215.81;;;0.38;95.64
41078;BME280;26823;42.662;23.352;2023-12-20T09:32:30;156195.75;;;0.30;96.46
41078;BME280;26823;42.662;23.352;2023-12-20T09:34:56;156242.56;;;0.48;96.98
41078;BME280;26823;42.662;23.352;2023-12-20T09:37:21;156229.19;;;0.43;96.31
41078;BME280;26823;42.662;23.352;2023-12-20T09:39:47;156250.56;;;0.52;97.13
41078;BME280;26823;42.662;23.352;2023-12-20T09:42:17;156233.19;;;0.45;96.69
41078;BME280;26823;42.662;23.352;2023-12-20T09:44:47;156262.63;;;0.56;96.70
41078;BME280;26823;42.662;23.352;2023-12-20T09:47:12;156241.19;;;0.48;96.82
41078;BME280;26823;42.662;23.352;2023-12-20T09:49:42;156181.03;;;0.25;96.48
41078;BME280;26823;42.662;23.352;2023-12-20T09:52:09;156218.44;;;0.39;96.94
41078;BME280;26823;42.662;23.352;2023-12-20T09:54:36;156261.25;;;0.56;97.60
41078;BME280;26823;42.662;23.352;2023-12-20T09:57:01;156304.09;;;0.72;97.03
41078;BME280;26823;42.662;23.352;2023-12-20T09:59:27;156366.97;;;0.96;96.98
41078;BME280;26823;42.662;23.352;2023-12-20T10:01:55;156425.88;;;1.19;95.77
41078;BME280;26823;42.662;23.352;2023-12-20T10:04:21;156511.53;;;1.52;94.11
41078;BME280;26823;42.662;23.352;2023-12-20T10:06:46;156641.38;;;2.02;92.36
41078;BME280;26823;42.662;23.352;2023-12-20T10:09:13;156806.13;;;2.66;89.22
41078;BME280;26823;42.662;23.352;2023-12-20T10:11:39;156930.75;;;3.14;86.06
41078;BME280;26823;42.662;23.352;2023-12-20T10:14:08;156980.34;;;3.33;83.88
41078;BME280;26823;42.662;23.352;2023-12-20T10:16:33;157099.66;;;3.79;82.34
41078;BME280;26823;42.662;23.352;2023-12-20T10:18:59;157219.06;;;4.24;80.71
41078;BME280;26823;42.662;23.352;2023-12-20T10:21:26;157376.00;;;4.85;77.88
41078;BME280;26823;42.662;23.352;2023-12-20T10:23:53;157573.34;;;5.61;73.70
41078;BME280;26823;42.662;23.352;2023-12-20T10:26:20;157741.28;;;6.25;71.90
41078;BME280;26823;42.662;23.352;2023-12-20T10:28:46;157886.38;;;6.81;67.87
41078;BME280;26823;42.662;23.352;2023-12-20T10:31:32;157962.97;;;7.10;63.98
41078;BME280;26823;42.662;23.352;2023-12-20T10:33:59;158034.25;;;7.38;63.46
41078;BME280;26823;42.662;23.352;2023-12-20T10:36:26;158153.91;;;7.83;61.82
41078;BME280;26823;42.662;23.352;2023-12-20T10:38:53;158120.31;;;7.71;59.17
41078;BME280;26823;42.662;23.352;2023-12-20T10:41:26;158191.56;;;7.98;60.94
41078;BME280;26823;42.662;23.352;2023-12-20T10:43:55;158240.00;;;8.16;59.33
41078;BME280;26823;42.662;23.352;2023-12-20T10:46:21;158322.13;;;8.48;58.94
41078;BME280;26823;42.662;23.352;2023-12-20T10:48:47;158351.72;;;8.59;57.39
41078;BME280;26823;42.662;23.352;2023-12-20T10:51:17;158365.19;;;8.64;57.36
41078;BME280;26823;42.662;23.352;2023-12-20T10:53:44;158296.50;;;8.38;57.51
41078;BME280;26823;42.662;23.352;2023-12-20T10:56:14;158160.63;;;7.86;59.49
41078;BME280;26823;42.662;23.352;2023-12-20T10:58:41;158170.06;;;7.90;60.28
41078;BME280;26823;42.662;23.352;2023-12-20T11:01:08;158166.03;;;7.88;60.00
41078;BME280;26823;42.662;23.352;2023-12-20T11:03:35;158144.50;;;7.80;59.74
41078;BME280;26823;42.662;23.352;2023-12-20T11:09:25;157679.47;;;6.01;66.99
41078;BME280;26823;42.662;23.352;2023-12-20T11:12:15;157534.38;;;5.46;69.87
41078;BME280;26823;42.662;23.352;2023-12-20T11:14:53;157475.31;;;5.23;71.20
41078;BME280;26823;42.662;23.352;2023-12-20T11:17:21;157370.66;;;4.83;72.79
41078;BME280;26823;42.662;23.352;2023-12-20T11:22:19;157235.16;;;4.31;75.28
41078;BME280;26823;42.662;23.352;2023-12-20T11:24:50;157127.84;;;3.89;77.71
41078;BME280;26823;42.662;23.352;2023-12-20T11:27:15;156984.34;;;3.34;80.18
41078;BME280;26823;42.662;23.352;2023-12-20T11:29:41;156992.44;;;3.37;81.54
41078;BME280;26823;42.662;23.352;2023-12-20T11:35:17;157004.47;;;3.42;82.58
41078;BME280;26823;42.662;23.352;2023-12-20T11:37:45;156980.34;;;3.33;83.07
41078;BME280;26823;42.662;23.352;2023-12-20T11:40:14;156977.66;;;3.32;83.02
41078;BME280;26823;42.662;23.352;2023-12-20T11:42:49;156968.25;;;3.28;83.21
41078;BME280;26823;42.662;23.352;2023-12-20T11:45:18;156979.03;;;3.32;83.33
41078;BME280;26823;42.662;23.352;2023-12-20T11:47:50;156965.63;;;3.27;84.30
41078;BME280;26823;42.662;23.352;2023-12-20T11:50:19;156950.84;;;3.21;84.35
41078;BME280;26823;42.662;23.352;2023-12-20T11:52:45;157044.72;;;3.57;83.84
41078;BME280;26823;42.662;23.352;2023-12-20T11:55:10;157142.56;;;3.95;83.00
41078;BME280;26823;42.662;23.352;2023-12-20T11:57:36;157315.63;;;4.62;80.19
41078;BME280;26823;42.662;23.352;2023-12-20T12:00:03;157487.41;;;5.28;77.78
41078;BME280;26823;42.662;23.352;2023-12-20T12:02:29;157706.31;;;6.12;73.57
41078;BME280;26823;42.662;23.352;2023-12-20T12:04:55;157679.47;;;6.01;73.30
41078;BME280;26823;42.662;23.352;2023-12-20T12:07:22;157932.09;;;6.98;69.99
41078;BME280;26823;42.662;23.352;2023-12-20T12:09:47;158086.69;;;7.58;66.95
41078;BME280;26823;42.662;23.352;2023-12-20T12:12:13;157965.69;;;7.11;64.97
41078;BME280;26823;42.662;23.352;2023-12-20T12:14:39;158038.28;;;7.39;66.60
41078;BME280;26823;42.662;23.352;2023-12-20T12:17:15;158131.03;;;7.75;64.20
41078;BME280;26823;42.662;23.352;2023-12-20T12:19:41;158098.75;;;7.62;64.30
41078;BME280;26823;42.662;23.352;2023-12-20T12:22:08;158046.31;;;7.42;64.42
41078;BME280;26823;42.662;23.352;2023-12-20T12:24:38;158118.94;;;7.70;64.35
41078;BME280;26823;42.662;23.352;2023-12-20T12:27:06;158132.41;;;7.75;64.41
41078;BME280;26823;42.662;23.352;2023-12-20T12:29:31;158253.44;;;8.22;63.02
41078;BME280;26823;42.662;23.352;2023-12-20T12:31:57;158225.22;;;8.11;62.97
41078;BME280;26823;42.662;23.352;2023-12-20T12:34:23;158254.81;;;8.22;61.73
41078;BME280;26823;42.662;23.352;2023-12-20T12:36:48;158209.06;;;8.05;61.65
41078;BME280;26823;42.662;23.352;2023-12-20T12:39:14;158328.84;;;8.51;61.86
41078;BME280;26823;42.662;23.352;2023-12-20T12:41:40;158459.41;;;9.01;60.09
41078;BME280;26823;42.662;23.352;2023-12-20T12:44:06;158445.91;;;8.95;59.37
41078;BME280;26823;42.662;23.352;2023-12-20T12:46:31;158480.91;;;9.09;59.01